sensor_id;sensor_type;location;lat;lon;timestamp;noise_LAeq;noise_LA_min;noise_LA_max;noise_LA01;noise_LA95
49543;Laerm;35435;48.792;8.962;2022-11-02T00:01:27;45.70;41.28;56.20;;
49543;Laerm;35435;48.792;8.962;2022-11-02T00:03:53;45.20;39.97;51.83;;
49543;Laerm;35435;48.792;8.962;2022-11-02T00:06:18;46.61;40.80;54.81;;
49543;Laerm;35435;48.792;8.962;2022-11-02T00:08:43;46.50;42.98;57.47;;
49543;Laerm;35435;48.792;8.962;2022-11-02T00:11:09;46.12;41.59;58.91;;
49543;Laerm;35435;48.792;8.962;2022-11-02T00:13:34;45.91;42.01;52.96;;
49543;Laerm;35435;48.792;8.962;2022-11-02T00:16:00;46.80;43.33;55.15;;
49543;Laerm;35435;48.792;8.962;2022-11-02T00:18:26;54.48;43.54;74.99;;
49543;Laerm;35435;48.792;8.962;2022-11-02T00:20:52;46.87;42.82;56.60;;
49543;Laerm;35435;48.792;8.962;2022-11-02T00:23:17;45.77;42.50;58.23;;
49543;Laerm;35435;48.792;8.962;2022-11-02T00:25:44;45.73;41.34;52.81;;
49543;Laerm;35435;48.792;8.962;2022-11-02T00:28:10;46.76;42.78;54.28;;
49543;Laerm;35435;48.792;8.962;2022-11-02T00:30:36;44.34;40.89;49.78;;
49543;Laerm;35435;48.792;8.962;2022-11-02T00:33:02;46.17;42.59;53.25;;
49543;Laerm;35435;48.792;8.962;2022-11-02T00:35:27;47.93;43.44;54.99;;
49543;Laerm;35435;48.792;8.962;2022-11-02T00:37:53;47.69;43.37;56.13;;
49543;Laerm;35435;48.792;8.962;2022-11-02T00:40:18;47.73;43.95;54.15;;
49543;Laerm;35435;48.792;8.962;2022-11-02T00:42:44;46.74;42.61;53.30;;
49543;Laerm;35435;48.792;8.962;2022-11-02T00:45:09;47.05;42.22;54.29;;
49543;Laerm;35435;48.792;8.962;2022-11-02T00:47:34;47.78;43.25;59.19;;
49543;Laerm;35435;48.792;8.962;2022-11-02T00:50:00;47.46;42.41;58.53;;
49543;Laerm;35435;48.792;8.962;2022-11-02T00:52:25;48.54;42.89;57.51;;
49543;Laerm;35435;48.792;8.962;2022-11-02T00:54:51;47.32;40.60;59.89;;
49543;Laerm;35435;48.792;8.962;2022-11-02T00:57:16;47.92;41.34;58.84;;
49543;Laerm;35435;48.792;8.962;2022-11-02T00:59:41;48.57;41.08;58.63;;
49543;Laerm;35435;48.792;8.962;2022-11-02T01:02:07;49.70;42.98;63.96;;
49543;Laerm;35435;48.792;8.962;2022-11-02T01:04:32;46.30;40.75;60.35;;
49543;Laerm;35435;48.792;8.962;2022-11-02T01:06:57;46.47;41.24;57.96;;
49543;Laerm;35435;48.792;8.962;2022-11-02T01:09:23;45.03;41.02;51.07;;
49543;Laerm;35435;48.792;8.962;2022-11-02T01:11:48;49.20;42.79;60.22;;
49543;Laerm;35435;48.792;8.962;2022-11-02T01:14:14;69.69;40.80;85.32;;
49543;Laerm;35435;48.792;8.962;2022-11-02T01:16:39;45.94;40.57;57.36;;
49543;Laerm;35435;48.792;8.962;2022-11-02T01:19:05;45.65;40.28;56.92;;
49543;Laerm;35435;48.792;8.962;2022-11-02T01:21:31;45.53;39.08;57.76;;
49543;Laerm;35435;48.792;8.962;2022-11-02T01:23:56;45.13;40.43;54.29;;
49543;Laerm;35435;48.792;8.962;2022-11-02T01:26:22;45.05;41.77;52.80;;
49543;Laerm;35435;48.792;8.962;2022-11-02T01:28:48;45.23;41.32;56.69;;
49543;Laerm;35435;48.792;8.962;2022-11-02T01:31:13;44.75;39.97;53.45;;
49543;Laerm;35435;48.792;8.962;2022-11-02T01:33:42;46.04;41.34;56.70;;
49543;Laerm;35435;48.792;8.962;2022-11-02T01:36:06;45.22;41.02;55.70;;
49543;Laerm;35435;48.792;8.962;2022-11-02T01:38:31;45.42;40.57;56.39;;
49543;Laerm;35435;48.792;8.962;2022-11-02T01:40:57;43.75;40.18;51.58;;
49543;Laerm;35435;48.792;8.962;2022-11-02T01:43:30;44.53;41.12;55.31;;
49543;Laerm;35435;48.792;8.962;2022-11-02T01:48:27;43.88;40.69;48.41;;
49543;Laerm;35435;48.792;8.962;2022-11-02T01:50:53;44.50;40.41;50.32;;
49543;Laerm;35435;48.792;8.962;2022-11-02T01:53:19;44.49;40.64;50.81;;
49543;Laerm;35435;48.792;8.962;2022-11-02T01:55:44;43.64;39.94;51.61;;
49543;Laerm;35435;48.792;8.962;2022-11-02T01:58:10;43.74;39.78;54.31;;
49543;Laerm;35435;48.792;8.962;2022-11-02T02:00:36;43.43;40.08;50.58;;
49543;Laerm;35435;48.792;8.962;2022-11-02T02:03:04;46.53;41.00;62.41;;
49543;Laerm;35435;48.792;8.962;2022-11-02T02:05:30;44.54;41.48;53.69;;
49543;Laerm;35435;48.792;8.962;2022-11-02T02:07:57;44.11;41.00;50.22;;
49543;Laerm;35435;48.792;8.962;2022-11-02T02:10:23;44.48;41.61;57.10;;
49543;Laerm;35435;48.792;8.962;2022-11-02T02:12:48;44.07;40.46;50.15;;
49543;Laerm;35435;48.792;8.962;2022-11-02T02:15:14;44.34;41.14;49.77;;
49543;Laerm;35435;48.792;8.962;2022-11-02T02:17:58;43.92;41.30;47.15;;
49543;Laerm;35435;48.792;8.962;2022-11-02T02:20:31;44.50;41.53;53.30;;
49543;Laerm;35435;48.792;8.962;2022-11-02T02:23:03;43.87;40.67;48.86;;
49543;Laerm;35435;48.792;8.962;2022-11-02T02:30:25;44.52;41.77;51.29;;
49543;Laerm;35435;48.792;8.962;2022-11-02T02:35:23;44.36;41.55;49.32;;
49543;Laerm;35435;48.792;8.962;2022-11-02T02:37:50;44.76;41.53;52.74;;
49543;Laerm;35435;48.792;8.962;2022-11-02T02:40:16;44.86;41.38;51.78;;
49543;Laerm;35435;48.792;8.962;2022-11-02T02:47:49;46.80;41.99;57.08;;
49543;Laerm;35435;48.792;8.962;2022-11-02T02:50:24;44.38;41.28;51.21;;
49543;Laerm;35435;48.792;8.962;2022-11-02T02:52:49;44.40;41.84;49.04;;
49543;Laerm;35435;48.792;8.962;2022-11-02T02:55:17;44.96;42.26;51.64;;
49543;Laerm;35435;48.792;8.962;2022-11-02T02:57:44;45.31;42.27;58.79;;
49543;Laerm;35435;48.792;8.962;2022-11-02T03:00:11;56.33;41.34;76.70;;
49543;Laerm;35435;48.792;8.962;2022-11-02T03:02:37;44.81;41.34;52.41;;
49543;Laerm;35435;48.792;8.962;2022-11-02T03:05:24;53.67;41.24;70.75;;
49543;Laerm;35435;48.792;8.962;2022-11-02T03:07:46;44.51;40.43;53.42;;
49543;Laerm;35435;48.792;8.962;2022-11-02T03:12:51;44.12;41.50;48.53;;
49543;Laerm;35435;48.792;8.962;2022-11-02T03:15:21;43.90;40.60;48.83;;
49543;Laerm;35435;48.792;8.962;2022-11-02T03:20:28;44.47;41.73;50.25;;
49543;Laerm;35435;48.792;8.962;2022-11-02T03:22:56;44.14;40.50;47.14;;
49543;Laerm;35435;48.792;8.962;2022-11-02T03:25:23;43.66;40.55;51.16;;
49543;Laerm;35435;48.792;8.962;2022-11-02T03:27:55;44.66;41.81;50.67;;
49543;Laerm;35435;48.792;8.962;2022-11-02T03:30:21;44.55;42.29;51.66;;
49543;Laerm;35435;48.792;8.962;2022-11-02T03:32:54;44.24;41.68;49.39;;
49543;Laerm;35435;48.792;8.962;2022-11-02T03:35:18;44.92;42.03;50.99;;
49543;Laerm;35435;48.792;8.962;2022-11-02T03:37:55;45.35;42.74;50.75;;
49543;Laerm;35435;48.792;8.962;2022-11-02T03:40:20;58.30;42.58;74.31;;
49543;Laerm;35435;48.792;8.962;2022-11-02T03:42:42;45.29;42.16;53.84;;
49543;Laerm;35435;48.792;8.962;2022-11-02T03:47:38;45.68;43.42;51.39;;
49543;Laerm;35435;48.792;8.962;2022-11-02T03:50:06;45.54;43.01;50.94;;
49543;Laerm;35435;48.792;8.962;2022-11-02T03:52:33;45.48;42.98;50.66;;
49543;Laerm;35435;48.792;8.962;2022-11-02T03:55:17;45.10;42.88;48.60;;
49543;Laerm;35435;48.792;8.962;2022-11-02T03:57:43;44.88;41.44;49.05;;
49543;Laerm;35435;48.792;8.962;2022-11-02T04:00:11;45.03;42.69;48.07;;
49543;Laerm;35435;48.792;8.962;2022-11-02T04:02:36;53.02;43.17;70.47;;
49543;Laerm;35435;48.792;8.962;2022-11-02T04:05:03;45.12;42.19;50.51;;
49543;Laerm;35435;48.792;8.962;2022-11-02T04:07:29;56.23;42.06;77.71;;
49543;Laerm;35435;48.792;8.962;2022-11-02T04:09:57;45.98;42.62;62.48;;
49543;Laerm;35435;48.792;8.962;2022-11-02T04:12:23;45.51;43.00;51.05;;
49543;Laerm;35435;48.792;8.962;2022-11-02T04:15:07;59.42;42.90;76.52;;
49543;Laerm;35435;48.792;8.962;2022-11-02T04:17:33;45.64;43.18;49.18;;
49543;Laerm;35435;48.792;8.962;2022-11-02T04:20:16;57.83;42.93;76.62;;
49543;Laerm;35435;48.792;8.962;2022-11-02T04:22:42;45.18;42.94;48.88;;
49543;Laerm;35435;48.792;8.962;2022-11-02T04:25:26;45.23;43.18;49.28;;
49543;Laerm;35435;48.792;8.962;2022-11-02T04:27:51;44.91;42.29;47.83;;
49543;Laerm;35435;48.792;8.962;2022-11-02T04:30:21;57.41;42.94;78.30;;
49543;Laerm;35435;48.792;8.962;2022-11-02T04:32:45;54.53;43.36;74.06;;
49543;Laerm;35435;48.792;8.962;2022-11-02T04:35:29;44.82;42.61;48.31;;
49543;Laerm;35435;48.792;8.962;2022-11-02T04:37:55;45.14;43.06;51.03;;
49543;Laerm;35435;48.792;8.962;2022-11-02T04:40:39;46.14;43.38;52.04;;
49543;Laerm;35435;48.792;8.962;2022-11-02T04:43:04;45.94;43.23;50.47;;
49543;Laerm;35435;48.792;8.962;2022-11-02T04:45:29;59.99;43.65;79.05;;
49543;Laerm;35435;48.792;8.962;2022-11-02T04:47:58;55.81;43.38;74.60;;
49543;Laerm;35435;48.792;8.962;2022-11-02T04:50:25;45.82;43.10;52.14;;
49543;Laerm;35435;48.792;8.962;2022-11-02T04:52:57;45.55;43.60;49.21;;
49543;Laerm;35435;48.792;8.962;2022-11-02T04:55:22;45.17;43.06;50.86;;
49543;Laerm;35435;48.792;8.962;2022-11-02T04:57:48;45.34;43.14;53.56;;
49543;Laerm;35435;48.792;8.962;2022-11-02T05:00:14;47.11;43.04;54.92;;
49543;Laerm;35435;48.792;8.962;2022-11-02T05:02:39;56.45;42.85;72.43;;
49543;Laerm;35435;48.792;8.962;2022-11-02T05:05:05;58.20;43.88;80.77;;
49543;Laerm;35435;48.792;8.962;2022-11-02T05:07:30;45.46;43.10;52.72;;
49543;Laerm;35435;48.792;8.962;2022-11-02T05:09:56;45.54;42.98;50.31;;
49543;Laerm;35435;48.792;8.962;2022-11-02T05:12:21;45.52;43.26;50.25;;
49543;Laerm;35435;48.792;8.962;2022-11-02T05:14:47;54.39;43.24;77.97;;
49543;Laerm;35435;48.792;8.962;2022-11-02T05:17:12;59.35;43.31;80.57;;
49543;Laerm;35435;48.792;8.962;2022-11-02T05:19:38;56.85;42.83;75.30;;
49543;Laerm;35435;48.792;8.962;2022-11-02T05:22:04;45.03;42.85;50.65;;
49543;Laerm;35435;48.792;8.962;2022-11-02T05:24:29;45.00;43.29;49.62;;
49543;Laerm;35435;48.792;8.962;2022-11-02T05:26:55;45.55;43.17;61.71;;
49543;Laerm;35435;48.792;8.962;2022-11-02T05:29:20;46.86;43.24;63.23;;
49543;Laerm;35435;48.792;8.962;2022-11-02T05:31:45;57.39;43.78;72.43;;
49543;Laerm;35435;48.792;8.962;2022-11-02T05:34:11;58.19;43.43;72.27;;
49543;Laerm;35435;48.792;8.962;2022-11-02T05:36:36;47.31;43.45;59.12;;
49543;Laerm;35435;48.792;8.962;2022-11-02T05:39:01;46.70;43.15;62.21;;
49543;Laerm;35435;48.792;8.962;2022-11-02T05:41:27;46.27;43.72;63.56;;
49543;Laerm;35435;48.792;8.962;2022-11-02T05:43:52;47.24;43.90;58.35;;
49543;Laerm;35435;48.792;8.962;2022-11-02T05:46:18;59.23;43.70;75.33;;
49543;Laerm;35435;48.792;8.962;2022-11-02T05:48:43;58.77;43.06;75.40;;
49543;Laerm;35435;48.792;8.962;2022-11-02T05:51:08;45.97;42.79;60.03;;
49543;Laerm;35435;48.792;8.962;2022-11-02T05:53:34;47.40;43.09;71.25;;
49543;Laerm;35435;48.792;8.962;2022-11-02T05:56:02;45.14;42.94;58.34;;
49543;Laerm;35435;48.792;8.962;2022-11-02T05:58:27;48.63;42.82;69.15;;
49543;Laerm;35435;48.792;8.962;2022-11-02T06:00:53;46.18;42.58;56.98;;
49543;Laerm;35435;48.792;8.962;2022-11-02T06:03:19;61.02;42.50;81.78;;
49543;Laerm;35435;48.792;8.962;2022-11-02T06:05:44;44.66;42.16;54.10;;
49543;Laerm;35435;48.792;8.962;2022-11-02T06:08:10;60.93;43.23;76.35;;
49543;Laerm;35435;48.792;8.962;2022-11-02T06:10:35;44.79;42.21;53.09;;
49543;Laerm;35435;48.792;8.962;2022-11-02T06:13:01;44.71;41.34;55.56;;
49543;Laerm;35435;48.792;8.962;2022-11-02T06:15:27;58.62;41.91;79.32;;
49543;Laerm;35435;48.792;8.962;2022-11-02T06:17:53;44.56;42.24;51.22;;
49543;Laerm;35435;48.792;8.962;2022-11-02T06:20:18;57.74;42.37;75.23;;
49543;Laerm;35435;48.792;8.962;2022-11-02T06:22:44;49.34;42.37;63.37;;
49543;Laerm;35435;48.792;8.962;2022-11-02T06:25:10;44.50;42.13;51.43;;
49543;Laerm;35435;48.792;8.962;2022-11-02T06:27:35;44.21;42.18;48.04;;
49543;Laerm;35435;48.792;8.962;2022-11-02T06:30:01;46.19;41.44;58.94;;
49543;Laerm;35435;48.792;8.962;2022-11-02T06:32:27;63.45;42.81;78.46;;
49543;Laerm;35435;48.792;8.962;2022-11-02T06:34:52;47.88;41.79;74.37;;
49543;Laerm;35435;48.792;8.962;2022-11-02T06:37:18;44.10;41.64;60.44;;
49543;Laerm;35435;48.792;8.962;2022-11-02T06:39:43;43.13;40.46;54.60;;
49543;Laerm;35435;48.792;8.962;2022-11-02T06:42:09;43.53;40.18;65.39;;
49543;Laerm;35435;48.792;8.962;2022-11-02T06:44:34;44.41;41.26;50.77;;
49543;Laerm;35435;48.792;8.962;2022-11-02T06:46:59;57.34;40.82;76.29;;
49543;Laerm;35435;48.792;8.962;2022-11-02T06:49:25;57.02;40.00;72.44;;
49543;Laerm;35435;48.792;8.962;2022-11-02T06:51:50;43.76;40.48;52.09;;
49543;Laerm;35435;48.792;8.962;2022-11-02T06:54:15;43.55;40.82;53.77;;
49543;Laerm;35435;48.792;8.962;2022-11-02T06:56:41;43.50;40.55;55.66;;
49543;Laerm;35435;48.792;8.962;2022-11-02T06:59:06;43.43;39.70;56.24;;
49543;Laerm;35435;48.792;8.962;2022-11-02T07:01:32;60.27;40.53;79.36;;
49543;Laerm;35435;48.792;8.962;2022-11-02T07:03:58;59.26;40.05;75.63;;
49543;Laerm;35435;48.792;8.962;2022-11-02T07:06:24;48.65;41.16;57.82;;
49543;Laerm;35435;48.792;8.962;2022-11-02T07:08:49;48.27;42.33;58.62;;
49543;Laerm;35435;48.792;8.962;2022-11-02T07:11:14;50.97;44.12;61.93;;
49543;Laerm;35435;48.792;8.962;2022-11-02T07:13:40;52.43;42.83;63.38;;
49543;Laerm;35435;48.792;8.962;2022-11-02T07:16:05;58.98;43.32;78.58;;
49543;Laerm;35435;48.792;8.962;2022-11-02T07:18:31;58.08;41.59;72.96;;
49543;Laerm;35435;48.792;8.962;2022-11-02T07:21:01;47.67;43.38;53.89;;
49543;Laerm;35435;48.792;8.962;2022-11-02T07:23:23;48.13;43.80;53.89;;
49543;Laerm;35435;48.792;8.962;2022-11-02T07:25:49;47.64;43.56;59.25;;
49543;Laerm;35435;48.792;8.962;2022-11-02T07:28:14;48.47;44.02;55.46;;
49543;Laerm;35435;48.792;8.962;2022-11-02T07:30:40;59.76;44.23;77.04;;
49543;Laerm;35435;48.792;8.962;2022-11-02T07:33:05;49.77;42.81;56.48;;
49543;Laerm;35435;48.792;8.962;2022-11-02T07:35:31;59.76;47.01;74.31;;
49543;Laerm;35435;48.792;8.962;2022-11-02T07:37:59;58.11;47.09;72.25;;
49543;Laerm;35435;48.792;8.962;2022-11-02T07:40:25;60.56;52.35;67.24;;
49543;Laerm;35435;48.792;8.962;2022-11-02T07:42:50;54.39;49.13;61.32;;
49543;Laerm;35435;48.792;8.962;2022-11-02T07:45:18;60.08;42.76;77.48;;
49543;Laerm;35435;48.792;8.962;2022-11-02T07:47:43;59.20;43.09;75.17;;
49543;Laerm;35435;48.792;8.962;2022-11-02T07:50:09;48.52;42.78;59.33;;
49543;Laerm;35435;48.792;8.962;2022-11-02T07:52:41;58.44;43.60;80.39;;
49543;Laerm;35435;48.792;8.962;2022-11-02T07:55:02;48.82;40.00;58.60;;
49543;Laerm;35435;48.792;8.962;2022-11-02T07:57:28;51.19;41.03;59.07;;
49543;Laerm;35435;48.792;8.962;2022-11-02T07:59:53;43.58;40.41;57.81;;
49543;Laerm;35435;48.792;8.962;2022-11-02T08:02:19;56.47;40.73;73.96;;
49543;Laerm;35435;48.792;8.962;2022-11-02T08:04:44;51.24;41.10;61.94;;
49543;Laerm;35435;48.792;8.962;2022-11-02T08:07:09;57.13;46.88;70.40;;
49543;Laerm;35435;48.792;8.962;2022-11-02T08:09:35;56.42;44.50;65.24;;
49543;Laerm;35435;48.792;8.962;2022-11-02T08:12:00;56.25;43.10;73.03;;
49543;Laerm;35435;48.792;8.962;2022-11-02T08:14:26;58.38;41.70;77.92;;
49543;Laerm;35435;48.792;8.962;2022-11-02T08:16:51;59.28;41.64;75.80;;
49543;Laerm;35435;48.792;8.962;2022-11-02T08:19:16;46.78;41.91;56.18;;
49543;Laerm;35435;48.792;8.962;2022-11-02T08:21:42;53.20;41.75;61.57;;
49543;Laerm;35435;48.792;8.962;2022-11-02T08:24:07;49.93;40.91;60.07;;
49543;Laerm;35435;48.792;8.962;2022-11-02T08:26:33;53.67;44.19;60.42;;
49543;Laerm;35435;48.792;8.962;2022-11-02T08:28:58;45.42;41.30;54.94;;
49543;Laerm;35435;48.792;8.962;2022-11-02T08:31:23;47.30;42.78;56.61;;
49543;Laerm;35435;48.792;8.962;2022-11-02T08:33:49;60.37;41.28;78.71;;
49543;Laerm;35435;48.792;8.962;2022-11-02T08:36:14;44.20;41.02;52.34;;
49543;Laerm;35435;48.792;8.962;2022-11-02T08:38:39;43.41;40.41;57.05;;
49543;Laerm;35435;48.792;8.962;2022-11-02T08:41:06;42.44;39.89;47.39;;
49543;Laerm;35435;48.792;8.962;2022-11-02T08:43:31;44.93;41.10;55.19;;
49543;Laerm;35435;48.792;8.962;2022-11-02T08:45:57;58.35;39.52;80.46;;
49543;Laerm;35435;48.792;8.962;2022-11-02T08:48:24;57.17;42.22;71.27;;
49543;Laerm;35435;48.792;8.962;2022-11-02T08:50:49;47.76;40.13;58.20;;
49543;Laerm;35435;48.792;8.962;2022-11-02T08:53:15;53.55;40.16;66.07;;
49543;Laerm;35435;48.792;8.962;2022-11-02T08:55:40;46.44;39.64;60.95;;
49543;Laerm;35435;48.792;8.962;2022-11-02T08:58:05;41.55;38.71;53.18;;
49543;Laerm;35435;48.792;8.962;2022-11-02T09:00:32;44.07;39.58;51.92;;
49543;Laerm;35435;48.792;8.962;2022-11-02T09:02:58;60.71;40.71;79.04;;
49543;Laerm;35435;48.792;8.962;2022-11-02T09:05:24;42.61;39.02;52.74;;
49543;Laerm;35435;48.792;8.962;2022-11-02T09:07:56;43.28;39.81;50.66;;
49543;Laerm;35435;48.792;8.962;2022-11-02T09:10:23;43.17;40.36;49.21;;
49543;Laerm;35435;48.792;8.962;2022-11-02T09:12:48;42.75;39.64;54.15;;
49543;Laerm;35435;48.792;8.962;2022-11-02T09:15:13;56.83;38.95;74.79;;
49543;Laerm;35435;48.792;8.962;2022-11-02T09:17:39;57.54;38.81;76.47;;
49543;Laerm;35435;48.792;8.962;2022-11-02T09:20:04;42.65;40.16;56.89;;
49543;Laerm;35435;48.792;8.962;2022-11-02T09:22:30;41.92;39.34;44.23;;
49543;Laerm;35435;48.792;8.962;2022-11-02T09:24:55;42.22;39.25;58.90;;
49543;Laerm;35435;48.792;8.962;2022-11-02T09:27:21;43.89;40.64;50.37;;
49543;Laerm;35435;48.792;8.962;2022-11-02T09:29:46;43.11;39.73;52.70;;
49543;Laerm;35435;48.792;8.962;2022-11-02T09:32:11;59.84;40.33;76.81;;
49543;Laerm;35435;48.792;8.962;2022-11-02T09:34:37;44.58;40.16;53.18;;
49543;Laerm;35435;48.792;8.962;2022-11-02T09:37:02;44.21;40.00;51.16;;
49543;Laerm;35435;48.792;8.962;2022-11-02T09:39:27;43.31;40.23;54.50;;
49543;Laerm;35435;48.792;8.962;2022-11-02T09:42:06;45.05;41.16;58.29;;
49543;Laerm;35435;48.792;8.962;2022-11-02T09:47:12;59.94;40.36;78.64;;
49543;Laerm;35435;48.792;8.962;2022-11-02T09:49:39;45.28;40.89;56.28;;
49543;Laerm;35435;48.792;8.962;2022-11-02T09:52:05;65.87;41.10;82.41;;
49543;Laerm;35435;48.792;8.962;2022-11-02T09:54:34;42.96;39.78;47.84;;
49543;Laerm;35435;48.792;8.962;2022-11-02T09:57:01;45.19;39.87;50.68;;
49543;Laerm;35435;48.792;8.962;2022-11-02T09:59:27;42.85;38.71;55.17;;
49543;Laerm;35435;48.792;8.962;2022-11-02T10:07:08;46.01;39.89;58.31;;
49543;Laerm;35435;48.792;8.962;2022-11-02T10:09:35;45.70;41.20;54.01;;
49543;Laerm;35435;48.792;8.962;2022-11-02T10:12:08;43.29;39.28;50.54;;
49543;Laerm;35435;48.792;8.962;2022-11-02T10:14:35;45.17;39.70;58.23;;
49543;Laerm;35435;48.792;8.962;2022-11-02T10:17:11;61.91;39.97;80.57;;
49543;Laerm;35435;48.792;8.962;2022-11-02T10:19:38;42.64;39.08;51.10;;
49543;Laerm;35435;48.792;8.962;2022-11-02T10:22:04;70.33;40.36;86.10;;
49543;Laerm;35435;48.792;8.962;2022-11-02T10:27:00;42.67;40.03;51.18;;
49543;Laerm;35435;48.792;8.962;2022-11-02T10:32:13;58.25;40.21;77.22;;
49543;Laerm;35435;48.792;8.962;2022-11-02T10:34:39;42.84;39.46;52.39;;
49543;Laerm;35435;48.792;8.962;2022-11-02T10:39:51;52.37;40.82;63.20;;
49543;Laerm;35435;48.792;8.962;2022-11-02T10:49:48;41.89;38.81;56.05;;
49543;Laerm;35435;48.792;8.962;2022-11-02T10:52:13;41.67;38.88;52.81;;
49543;Laerm;35435;48.792;8.962;2022-11-02T10:54:39;41.69;38.74;55.29;;
49543;Laerm;35435;48.792;8.962;2022-11-02T10:57:12;42.02;39.05;53.00;;
49543;Laerm;35435;48.792;8.962;2022-11-02T10:59:35;57.35;40.23;79.86;;
49543;Laerm;35435;48.792;8.962;2022-11-02T11:04:29;43.27;39.08;52.47;;
49543;Laerm;35435;48.792;8.962;2022-11-02T11:06:55;41.57;38.33;52.52;;
49543;Laerm;35435;48.792;8.962;2022-11-02T11:09:22;42.14;39.15;59.96;;
49543;Laerm;35435;48.792;8.962;2022-11-02T11:11:51;42.03;38.71;54.74;;
49543;Laerm;35435;48.792;8.962;2022-11-02T11:14:18;42.67;38.41;51.78;;
49543;Laerm;35435;48.792;8.962;2022-11-02T11:16:46;59.92;39.37;74.99;;
49543;Laerm;35435;48.792;8.962;2022-11-02T11:19:17;43.91;40.21;55.50;;
49543;Laerm;35435;48.792;8.962;2022-11-02T11:21:42;42.96;40.36;59.30;;
49543;Laerm;35435;48.792;8.962;2022-11-02T11:24:19;42.37;39.08;62.84;;
49543;Laerm;35435;48.792;8.962;2022-11-02T11:26:44;42.11;39.71;54.11;;
49543;Laerm;35435;48.792;8.962;2022-11-02T11:29:22;42.61;39.14;60.52;;
49543;Laerm;35435;48.792;8.962;2022-11-02T11:31:48;57.33;40.18;77.67;;
49543;Laerm;35435;48.792;8.962;2022-11-02T11:34:24;57.93;40.69;72.72;;
49543;Laerm;35435;48.792;8.962;2022-11-02T11:36:50;43.51;40.26;56.73;;
49543;Laerm;35435;48.792;8.962;2022-11-02T11:39:21;42.25;39.81;52.80;;
49543;Laerm;35435;48.792;8.962;2022-11-02T11:41:46;42.52;39.58;56.20;;
49543;Laerm;35435;48.792;8.962;2022-11-02T11:44:12;44.09;40.00;57.98;;
49543;Laerm;35435;48.792;8.962;2022-11-02T11:46:43;60.25;39.49;79.46;;
49543;Laerm;35435;48.792;8.962;2022-11-02T11:49:11;44.09;39.78;63.44;;
49543;Laerm;35435;48.792;8.962;2022-11-02T11:51:36;43.12;38.98;61.02;;
49543;Laerm;35435;48.792;8.962;2022-11-02T11:56:46;42.49;39.61;58.32;;
49543;Laerm;35435;48.792;8.962;2022-11-02T11:59:19;43.04;39.78;68.63;;
49543;Laerm;35435;48.792;8.962;2022-11-02T12:01:45;59.61;39.37;78.23;;
49543;Laerm;35435;48.792;8.962;2022-11-02T12:04:10;43.48;39.97;52.67;;
49543;Laerm;35435;48.792;8.962;2022-11-02T12:09:11;41.71;38.60;65.68;;
49543;Laerm;35435;48.792;8.962;2022-11-02T12:22:08;42.61;39.49;62.54;;
49543;Laerm;35435;48.792;8.962;2022-11-02T12:24:41;42.11;39.40;53.37;;
49543;Laerm;35435;48.792;8.962;2022-11-02T12:29:43;42.73;39.87;50.08;;
49543;Laerm;35435;48.792;8.962;2022-11-02T12:35:01;45.92;40.13;57.97;;
49543;Laerm;35435;48.792;8.962;2022-11-02T12:39:56;48.77;39.21;70.56;;
49543;Laerm;35435;48.792;8.962;2022-11-02T12:44:54;50.13;39.52;67.42;;
49543;Laerm;35435;48.792;8.962;2022-11-02T12:52:47;41.96;39.21;52.70;;
49543;Laerm;35435;48.792;8.962;2022-11-02T12:55:16;42.53;39.18;53.45;;
49543;Laerm;35435;48.792;8.962;2022-11-02T12:57:39;41.66;38.88;53.15;;
49543;Laerm;35435;48.792;8.962;2022-11-02T13:00:06;57.29;39.40;77.99;;
49543;Laerm;35435;48.792;8.962;2022-11-02T13:05:11;68.43;40.62;86.11;;
49543;Laerm;35435;48.792;8.962;2022-11-02T13:07:41;54.20;39.61;68.07;;
49543;Laerm;35435;48.792;8.962;2022-11-02T13:10:05;69.96;58.59;77.49;;
49543;Laerm;35435;48.792;8.962;2022-11-02T13:12:31;71.88;59.68;78.73;;
49543;Laerm;35435;48.792;8.962;2022-11-02T13:14:57;69.25;60.67;78.43;;
49543;Laerm;35435;48.792;8.962;2022-11-02T13:17:25;68.92;60.60;76.66;;
49543;Laerm;35435;48.792;8.962;2022-11-02T13:19:54;61.42;38.56;71.16;;
49543;Laerm;35435;48.792;8.962;2022-11-02T13:22:24;42.64;39.28;55.87;;
49543;Laerm;35435;48.792;8.962;2022-11-02T13:24:49;43.33;39.05;68.12;;
49543;Laerm;35435;48.792;8.962;2022-11-02T13:27:35;57.63;39.34;65.09;;
49543;Laerm;35435;48.792;8.962;2022-11-02T13:30:03;58.11;51.19;65.68;;
49543;Laerm;35435;48.792;8.962;2022-11-02T13:32:34;60.78;51.04;76.31;;
49543;Laerm;35435;48.792;8.962;2022-11-02T13:35:02;59.00;40.43;68.62;;
49543;Laerm;35435;48.792;8.962;2022-11-02T13:37:28;59.84;40.93;76.43;;
49543;Laerm;35435;48.792;8.962;2022-11-02T13:39:54;44.36;40.87;68.99;;
49543;Laerm;35435;48.792;8.962;2022-11-02T13:42:23;44.98;41.59;63.05;;
49543;Laerm;35435;48.792;8.962;2022-11-02T13:49:49;60.95;45.59;77.12;;
49543;Laerm;35435;48.792;8.962;2022-11-02T13:52:21;56.79;51.51;65.79;;
49543;Laerm;35435;48.792;8.962;2022-11-02T13:54:44;57.28;51.73;65.04;;
49543;Laerm;35435;48.792;8.962;2022-11-02T13:59:49;49.78;40.46;68.06;;
49543;Laerm;35435;48.792;8.962;2022-11-02T14:02:16;68.88;40.67;83.94;;
49543;Laerm;35435;48.792;8.962;2022-11-02T14:04:42;62.49;40.71;86.31;;
49543;Laerm;35435;48.792;8.962;2022-11-02T14:07:18;47.76;39.78;75.90;;
49543;Laerm;35435;48.792;8.962;2022-11-02T14:09:38;50.18;39.49;77.81;;
49543;Laerm;35435;48.792;8.962;2022-11-02T14:14:37;60.56;40.76;80.79;;
49543;Laerm;35435;48.792;8.962;2022-11-02T14:17:09;58.44;41.32;86.43;;
49543;Laerm;35435;48.792;8.962;2022-11-02T14:22:12;45.02;40.62;64.95;;
49543;Laerm;35435;48.792;8.962;2022-11-02T14:27:26;62.24;41.20;73.62;;
49543;Laerm;35435;48.792;8.962;2022-11-02T14:32:07;62.12;40.60;78.38;;
49543;Laerm;35435;48.792;8.962;2022-11-02T14:34:37;46.31;39.70;70.43;;
49543;Laerm;35435;48.792;8.962;2022-11-02T14:37:17;46.06;39.61;61.78;;
49543;Laerm;35435;48.792;8.962;2022-11-02T14:39:39;50.04;40.61;62.72;;
49543;Laerm;35435;48.792;8.962;2022-11-02T14:42:15;44.53;40.67;56.16;;
49543;Laerm;35435;48.792;8.962;2022-11-02T14:44:45;43.29;40.05;56.37;;
49543;Laerm;35435;48.792;8.962;2022-11-02T14:47:10;56.39;40.78;85.06;;
49543;Laerm;35435;48.792;8.962;2022-11-02T14:49:45;58.26;40.46;80.68;;
49543;Laerm;35435;48.792;8.962;2022-11-02T14:52:14;60.86;42.29;80.42;;
49543;Laerm;35435;48.792;8.962;2022-11-02T14:54:54;44.04;41.48;53.55;;
49543;Laerm;35435;48.792;8.962;2022-11-02T14:59:32;44.65;41.73;53.91;;
49543;Laerm;35435;48.792;8.962;2022-11-02T15:01:59;61.87;42.46;77.05;;
49543;Laerm;35435;48.792;8.962;2022-11-02T15:04:26;44.68;41.32;54.31;;
49543;Laerm;35435;48.792;8.962;2022-11-02T15:06:53;63.02;41.26;77.61;;
49543;Laerm;35435;48.792;8.962;2022-11-02T15:12:45;44.54;41.55;58.76;;
49543;Laerm;35435;48.792;8.962;2022-11-02T15:19:34;45.80;42.81;58.09;;
49543;Laerm;35435;48.792;8.962;2022-11-02T15:24:46;48.70;43.91;58.06;;
49543;Laerm;35435;48.792;8.962;2022-11-02T15:27:11;51.43;45.29;57.82;;
49543;Laerm;35435;48.792;8.962;2022-11-02T15:29:41;52.61;45.89;62.22;;
49543;Laerm;35435;48.792;8.962;2022-11-02T15:32:10;62.08;47.24;78.39;;
49543;Laerm;35435;48.792;8.962;2022-11-02T15:34:43;50.61;44.59;59.81;;
49543;Laerm;35435;48.792;8.962;2022-11-02T15:37:02;50.92;46.07;64.80;;